sensor_id;sensor_type;location;lat;lon;timestamp;P1;durP1;ratioP1;P2;durP2;ratioP2
14774;SDS011;7479;47.042;15.160;2023-07-24T05:00:24;11.93;;;8.27;;
14774;SDS011;7479;47.042;15.160;2023-07-24T05:19:48;8.73;;;7.43;;
14774;SDS011;7479;47.042;15.160;2023-07-24T05:24:41;10.00;;;6.88;;
14774;SDS011;7479;47.042;15.160;2023-07-24T05:29:35;12.75;;;7.50;;
14774;SDS011;7479;47.042;15.160;2023-07-24T05:34:28;8.50;;;6.53;;
14774;SDS011;7479;47.042;15.160;2023-07-24T05:49:51;11.15;;;7.47;;
14774;SDS011;7479;47.042;15.160;2023-07-24T05:54:45;11.10;;;7.82;;
14774;SDS011;7479;47.042;15.160;2023-07-24T05:59:38;13.48;;;8.00;;
14774;SDS011;7479;47.042;15.160;2023-07-24T06:04:32;13.35;;;7.80;;
14774;SDS011;7479;47.042;15.160;2023-07-24T06:09:27;12.15;;;7.25;;
14774;SDS011;7479;47.042;15.160;2023-07-24T06:14:20;10.43;;;8.20;;
14774;SDS011;7479;47.042;15.160;2023-07-24T06:19:14;9.27;;;6.82;;
14774;SDS011;7479;47.042;15.160;2023-07-24T06:24:09;11.02;;;7.45;;
14774;SDS011;7479;47.042;15.160;2023-07-24T06:29:05;8.68;;;7.55;;
14774;SDS011;7479;47.042;15.160;2023-07-24T06:33:59;11.48;;;7.57;;
14774;SDS011;7479;47.042;15.160;2023-07-24T06:38:53;11.18;;;7.82;;
14774;SDS011;7479;47.042;15.160;2023-07-24T06:43:46;12.18;;;7.72;;
14774;SDS011;7479;47.042;15.160;2023-07-24T06:48:41;12.48;;;7.90;;
14774;SDS011;7479;47.042;15.160;2023-07-24T06:53:35;9.82;;;7.15;;
14774;SDS011;7479;47.042;15.160;2023-07-24T06:58:29;9.57;;;7.47;;
14774;SDS011;7479;47.042;15.160;2023-07-24T07:03:22;10.65;;;7.28;;
14774;SDS011;7479;47.042;15.160;2023-07-24T07:08:17;9.48;;;7.05;;
14774;SDS011;7479;47.042;15.160;2023-07-24T07:13:11;9.13;;;7.25;;
14774;SDS011;7479;47.042;15.160;2023-07-24T07:18:04;9.02;;;7.43;;
14774;SDS011;7479;47.042;15.160;2023-07-24T07:22:58;10.50;;;7.40;;
14774;SDS011;7479;47.042;15.160;2023-07-24T07:27:53;10.02;;;7.85;;
14774;SDS011;7479;47.042;15.160;2023-07-24T07:32:47;11.85;;;8.02;;
14774;SDS011;7479;47.042;15.160;2023-07-24T07:37:41;9.65;;;8.18;;
14774;SDS011;7479;47.042;15.160;2023-07-24T07:42:35;8.80;;;6.82;;
14774;SDS011;7479;47.042;15.160;2023-07-24T07:47:32;10.32;;;7.80;;
14774;SDS011;7479;47.042;15.160;2023-07-24T07:52:26;9.43;;;7.32;;
14774;SDS011;7479;47.042;15.160;2023-07-24T07:57:19;10.60;;;7.90;;
14774;SDS011;7479;47.042;15.160;2023-07-24T08:02:13;14.27;;;7.93;;
14774;SDS011;7479;47.042;15.160;2023-07-24T08:07:09;9.40;;;7.30;;
14774;SDS011;7479;47.042;15.160;2023-07-24T08:12:03;9.30;;;7.55;;
14774;SDS011;7479;47.042;15.160;2023-07-24T08:16:59;12.23;;;7.53;;
14774;SDS011;7479;47.042;15.160;2023-07-24T08:21:52;14.90;;;7.80;;
14774;SDS011;7479;47.042;15.160;2023-07-24T08:26:47;11.75;;;7.90;;
14774;SDS011;7479;47.042;15.160;2023-07-24T08:31:41;9.75;;;7.47;;
14774;SDS011;7479;47.042;15.160;2023-07-24T08:36:35;10.98;;;8.23;;
14774;SDS011;7479;47.042;15.160;2023-07-24T08:41:29;9.50;;;7.80;;
14774;SDS011;7479;47.042;15.160;2023-07-24T08:46:27;9.85;;;8.38;;
14774;SDS011;7479;47.042;15.160;2023-07-24T08:51:21;11.65;;;8.30;;
14774;SDS011;7479;47.042;15.160;2023-07-24T08:56:16;11.57;;;8.93;;
14774;SDS011;7479;47.042;15.160;2023-07-24T09:01:10;10.57;;;8.13;;
14774;SDS011;7479;47.042;15.160;2023-07-24T09:06:05;11.27;;;8.98;;
14774;SDS011;7479;47.042;15.160;2023-07-24T09:10:59;11.85;;;8.32;;
14774;SDS011;7479;47.042;15.160;2023-07-24T09:15:54;14.70;;;10.52;;
14774;SDS011;7479;47.042;15.160;2023-07-24T09:20:48;15.88;;;10.02;;
14774;SDS011;7479;47.042;15.160;2023-07-24T09:25:44;12.43;;;9.75;;
14774;SDS011;7479;47.042;15.160;2023-07-24T09:30:38;13.77;;;9.20;;
14774;SDS011;7479;47.042;15.160;2023-07-24T09:35:32;9.98;;;8.48;;
14774;SDS011;7479;47.042;15.160;2023-07-24T09:40:26;10.70;;;8.43;;
14774;SDS011;7479;47.042;15.160;2023-07-24T09:45:21;10.85;;;8.82;;
14774;SDS011;7479;47.042;15.160;2023-07-24T09:50:16;10.05;;;9.00;;
14774;SDS011;7479;47.042;15.160;2023-07-24T09:55:10;11.23;;;8.95;;
14774;SDS011;7479;47.042;15.160;2023-07-24T10:00:05;10.23;;;8.23;;
14774;SDS011;7479;47.042;15.160;2023-07-24T10:05:01;10.25;;;8.80;;
14774;SDS011;7479;47.042;15.160;2023-07-24T10:09:56;10.80;;;8.18;;
14774;SDS011;7479;47.042;15.160;2023-07-24T10:14:50;11.77;;;8.57;;
14774;SDS011;7479;47.042;15.160;2023-07-24T10:19:44;12.15;;;8.75;;
14774;SDS011;7479;47.042;15.160;2023-07-24T10:24:39;15.02;;;8.75;;
14774;SDS011;7479;47.042;15.160;2023-07-24T10:29:36;15.00;;;8.63;;
14774;SDS011;7479;47.042;15.160;2023-07-24T10:34:36;13.05;;;9.82;;
14774;SDS011;7479;47.042;15.160;2023-07-24T10:39:36;13.75;;;10.23;;
14774;SDS011;7479;47.042;15.160;2023-07-24T10:44:32;13.00;;;10.43;;
14774;SDS011;7479;47.042;15.160;2023-07-24T10:49:25;13.07;;;9.52;;
14774;SDS011;7479;47.042;15.160;2023-07-24T10:54:20;15.00;;;10.80;;
14774;SDS011;7479;47.042;15.160;2023-07-24T10:59:14;16.20;;;11.48;;
14774;SDS011;7479;47.042;15.160;2023-07-24T11:04:09;16.30;;;11.45;;
14774;SDS011;7479;47.042;15.160;2023-07-24T11:09:04;16.48;;;11.23;;
14774;SDS011;7479;47.042;15.160;2023-07-24T11:13:57;14.15;;;10.90;;
14774;SDS011;7479;47.042;15.160;2023-07-24T11:18:51;13.73;;;10.18;;
14774;SDS011;7479;47.042;15.160;2023-07-24T11:23:48;12.85;;;10.25;;
14774;SDS011;7479;47.042;15.160;2023-07-24T11:28:43;13.32;;;10.85;;
14774;SDS011;7479;47.042;15.160;2023-07-24T11:33:36;14.85;;;10.38;;
14774;SDS011;7479;47.042;15.160;2023-07-24T11:38:30;16.38;;;10.40;;
14774;SDS011;7479;47.042;15.160;2023-07-24T11:43:25;15.88;;;10.68;;
14774;SDS011;7479;47.042;15.160;2023-07-24T11:48:19;14.85;;;10.75;;
14774;SDS011;7479;47.042;15.160;2023-07-24T11:53:20;14.43;;;11.45;;
14774;SDS011;7479;47.042;15.160;2023-07-24T11:58:15;14.40;;;10.77;;
14774;SDS011;7479;47.042;15.160;2023-07-24T12:03:11;16.33;;;10.80;;
14774;SDS011;7479;47.042;15.160;2023-07-24T12:08:04;14.13;;;10.98;;
14774;SDS011;7479;47.042;15.160;2023-07-24T12:12:58;14.57;;;10.55;;
14774;SDS011;7479;47.042;15.160;2023-07-24T12:17:52;14.90;;;10.75;;
14774;SDS011;7479;47.042;15.160;2023-07-24T12:22:47;14.52;;;10.98;;
14774;SDS011;7479;47.042;15.160;2023-07-24T12:27:41;13.02;;;10.18;;
14774;SDS011;7479;47.042;15.160;2023-07-24T12:32:34;15.85;;;11.10;;
14774;SDS011;7479;47.042;15.160;2023-07-24T12:37:28;15.35;;;10.75;;
14774;SDS011;7479;47.042;15.160;2023-07-24T12:42:23;16.05;;;11.32;;
14774;SDS011;7479;47.042;15.160;2023-07-24T12:47:17;14.60;;;10.13;;
14774;SDS011;7479;47.042;15.160;2023-07-24T12:52:11;14.77;;;11.40;;
14774;SDS011;7479;47.042;15.160;2023-07-24T12:57:05;13.30;;;10.65;;
14774;SDS011;7479;47.042;15.160;2023-07-24T13:02:00;17.58;;;10.98;;
14774;SDS011;7479;47.042;15.160;2023-07-24T13:06:53;15.00;;;11.30;;
14774;SDS011;7479;47.042;15.160;2023-07-24T13:11:47;14.57;;;11.15;;
14774;SDS011;7479;47.042;15.160;2023-07-24T13:16:42;16.77;;;11.68;;
14774;SDS011;7479;47.042;15.160;2023-07-24T13:21:37;13.93;;;11.05;;
14774;SDS011;7479;47.042;15.160;2023-07-24T13:26:31;15.18;;;10.90;;
14774;SDS011;7479;47.042;15.160;2023-07-24T13:31:24;12.57;;;10.13;;
14774;SDS011;7479;47.042;15.160;2023-07-24T13:36:20;15.63;;;11.30;;
14774;SDS011;7479;47.042;15.160;2023-07-24T13:41:15;14.60;;;11.13;;
14774;SDS011;7479;47.042;15.160;2023-07-24T13:46:08;14.18;;;11.02;;
14774;SDS011;7479;47.042;15.160;2023-07-24T13:51:02;14.02;;;10.63;;
14774;SDS011;7479;47.042;15.160;2023-07-24T13:55:55;16.25;;;10.90;;
14774;SDS011;7479;47.042;15.160;2023-07-24T14:00:50;15.93;;;11.18;;
14774;SDS011;7479;47.042;15.160;2023-07-24T14:05:44;13.00;;;10.32;;
14774;SDS011;7479;47.042;15.160;2023-07-24T14:10:37;14.75;;;9.93;;
14774;SDS011;7479;47.042;15.160;2023-07-24T14:15:31;12.63;;;9.70;;
14774;SDS011;7479;47.042;15.160;2023-07-24T14:20:29;15.05;;;10.18;;
14774;SDS011;7479;47.042;15.160;2023-07-24T14:25:22;14.02;;;9.48;;
14774;SDS011;7479;47.042;15.160;2023-07-24T14:30:15;14.07;;;9.20;;
14774;SDS011;7479;47.042;15.160;2023-07-24T14:35:09;10.70;;;7.75;;
14774;SDS011;7479;47.042;15.160;2023-07-24T14:40:05;13.70;;;8.80;;
14774;SDS011;7479;47.042;15.160;2023-07-24T14:44:59;11.18;;;7.63;;
14774;SDS011;7479;47.042;15.160;2023-07-24T14:49:54;9.05;;;7.55;;
14774;SDS011;7479;47.042;15.160;2023-07-24T14:54:47;10.13;;;7.00;;
14774;SDS011;7479;47.042;15.160;2023-07-24T14:59:42;8.13;;;5.90;;
14774;SDS011;7479;47.042;15.160;2023-07-24T15:04:36;9.15;;;6.20;;
14774;SDS011;7479;47.042;15.160;2023-07-24T15:09:29;8.60;;;5.78;;
14774;SDS011;7479;47.042;15.160;2023-07-24T15:14:23;10.15;;;6.03;;
14774;SDS011;7479;47.042;15.160;2023-07-24T15:19:19;9.45;;;6.32;;
14774;SDS011;7479;47.042;15.160;2023-07-24T15:24:12;8.73;;;5.75;;
14774;SDS011;7479;47.042;15.160;2023-07-24T15:29:09;8.05;;;5.70;;
14774;SDS011;7479;47.042;15.160;2023-07-24T15:34:02;8.18;;;5.75;;
14774;SDS011;7479;47.042;15.160;2023-07-24T15:38:58;7.95;;;5.35;;
14774;SDS011;7479;47.042;15.160;2023-07-24T15:43:52;8.65;;;4.55;;
14774;SDS011;7479;47.042;15.160;2023-07-24T15:48:45;7.90;;;4.60;;
14774;SDS011;7479;47.042;15.160;2023-07-24T15:53:38;7.93;;;4.68;;
14774;SDS011;7479;47.042;15.160;2023-07-24T15:58:33;7.47;;;4.72;;
14774;SDS011;7479;47.042;15.160;2023-07-24T16:03:28;7.68;;;4.60;;
14774;SDS011;7479;47.042;15.160;2023-07-24T16:08:22;6.43;;;4.10;;
14774;SDS011;7479;47.042;15.160;2023-07-24T16:13:16;6.63;;;4.28;;
14774;SDS011;7479;47.042;15.160;2023-07-24T16:18:11;4.70;;;3.47;;
14774;SDS011;7479;47.042;15.160;2023-07-24T16:23:04;5.35;;;3.35;;
14774;SDS011;7479;47.042;15.160;2023-07-24T16:27:57;5.05;;;3.40;;
14774;SDS011;7479;47.042;15.160;2023-07-24T16:32:51;7.57;;;3.50;;
14774;SDS011;7479;47.042;15.160;2023-07-24T16:37:46;6.07;;;3.30;;
14774;SDS011;7479;47.042;15.160;2023-07-24T16:42:39;9.35;;;3.70;;
14774;SDS011;7479;47.042;15.160;2023-07-24T16:47:33;5.13;;;3.00;;
14774;SDS011;7479;47.042;15.160;2023-07-24T16:52:26;5.00;;;3.25;;
14774;SDS011;7479;47.042;15.160;2023-07-24T16:57:21;6.45;;;3.47;;
14774;SDS011;7479;47.042;15.160;2023-07-24T17:02:15;6.90;;;2.97;;
14774;SDS011;7479;47.042;15.160;2023-07-24T17:07:08;4.68;;;3.10;;
14774;SDS011;7479;47.042;15.160;2023-07-24T17:12:01;5.50;;;3.30;;
14774;SDS011;7479;47.042;15.160;2023-07-24T17:16:57;6.70;;;3.17;;
14774;SDS011;7479;47.042;15.160;2023-07-24T17:21:51;5.72;;;2.97;;
14774;SDS011;7479;47.042;15.160;2023-07-24T17:26:45;8.43;;;3.47;;
14774;SDS011;7479;47.042;15.160;2023-07-24T17:31:38;6.65;;;2.65;;
14774;SDS011;7479;47.042;15.160;2023-07-24T17:36:35;4.57;;;2.67;;
14774;SDS011;7479;47.042;15.160;2023-07-24T17:41:28;4.13;;;2.67;;
14774;SDS011;7479;47.042;15.160;2023-07-24T17:46:22;4.57;;;2.90;;
14774;SDS011;7479;47.042;15.160;2023-07-24T17:51:16;6.35;;;2.67;;
14774;SDS011;7479;47.042;15.160;2023-07-24T17:56:11;4.47;;;2.72;;
14774;SDS011;7479;47.042;15.160;2023-07-24T18:01:04;5.25;;;2.90;;
14774;SDS011;7479;47.042;15.160;2023-07-24T18:05:58;3.83;;;2.50;;
14774;SDS011;7479;47.042;15.160;2023-07-24T18:10:51;5.97;;;2.38;;
14774;SDS011;7479;47.042;15.160;2023-07-24T18:15:46;5.85;;;2.70;;
14774;SDS011;7479;47.042;15.160;2023-07-24T18:20:40;4.25;;;3.08;;
14774;SDS011;7479;47.042;15.160;2023-07-24T18:25:33;5.32;;;2.45;;
14774;SDS011;7479;47.042;15.160;2023-07-24T18:30:27;6.78;;;3.00;;
14774;SDS011;7479;47.042;15.160;2023-07-24T18:35:22;6.05;;;4.20;;
14774;SDS011;7479;47.042;15.160;2023-07-24T18:40:16;5.53;;;3.63;;
14774;SDS011;7479;47.042;15.160;2023-07-24T18:45:09;7.40;;;3.38;;
14774;SDS011;7479;47.042;15.160;2023-07-24T18:50:03;7.63;;;3.38;;
14774;SDS011;7479;47.042;15.160;2023-07-24T18:54:59;6.63;;;4.43;;
14774;SDS011;7479;47.042;15.160;2023-07-24T18:59:52;6.43;;;3.22;;
14774;SDS011;7479;47.042;15.160;2023-07-24T19:04:46;6.18;;;3.50;;
14774;SDS011;7479;47.042;15.160;2023-07-24T19:09:39;3.97;;;2.95;;
14774;SDS011;7479;47.042;15.160;2023-07-24T19:14:34;7.07;;;2.80;;
14774;SDS011;7479;47.042;15.160;2023-07-24T19:19:28;4.97;;;3.50;;
14774;SDS011;7479;47.042;15.160;2023-07-24T19:24:21;5.97;;;3.15;;
14774;SDS011;7479;47.042;15.160;2023-07-24T19:29:14;8.88;;;2.78;;
14774;SDS011;7479;47.042;15.160;2023-07-24T19:34:09;5.82;;;3.20;;
14774;SDS011;7479;47.042;15.160;2023-07-24T19:39:03;4.28;;;2.78;;
14774;SDS011;7479;47.042;15.160;2023-07-24T19:43:57;6.55;;;3.15;;
14774;SDS011;7479;47.042;15.160;2023-07-24T19:48:51;3.85;;;2.92;;
14774;SDS011;7479;47.042;15.160;2023-07-24T19:53:46;4.78;;;2.85;;
14774;SDS011;7479;47.042;15.160;2023-07-24T19:58:39;4.05;;;2.95;;
14774;SDS011;7479;47.042;15.160;2023-07-24T20:03:33;5.40;;;3.00;;
14774;SDS011;7479;47.042;15.160;2023-07-24T20:08:27;5.85;;;3.22;;
14774;SDS011;7479;47.042;15.160;2023-07-24T20:13:23;5.28;;;3.17;;
14774;SDS011;7479;47.042;15.160;2023-07-24T20:18:17;3.83;;;3.13;;
14774;SDS011;7479;47.042;15.160;2023-07-24T20:23:10;10.90;;;3.30;;
